Latest Coastal Weather Observations for Bundaberg

IDQ60701

Issued at 6:02 pm EST Wednesday 31 August 2016 (issued every 10 minutes, with the page automatically refreshed every 10 minutes)

About coastal observations | Map of coastal stations | Coastal observations for QLD | Marine services | Other Formats
Station Details ID: 039128 Name: BUNDABERG AERO Lat: -24.91 Lon: 152.32 Height: 30.82 m
Data from the previous 72 hours. | See also: Recent months at Bundaberg
Date/Time
EST
Temp
°C
Wind Pressure Rain since
9am
mm
Weather Cloud Vis
km
Sea
Height
m
Swell
Dir  Spd
kts
Gust
kts
hPa Trend Height
m
Period
s
Dir
31/06:00pm 19.6 E 5 7 1022.0 - 0.0 - Partly cloudy 10 - - - -
31/05:30pm 20.7 E 7 9 1021.8 - 0.0 - Cloudy 10 - - - -
31/05:00pm 21.9 ENE 8 11 1021.5 - 0.0 - Cloudy 10 - - - -
31/04:30pm 22.6 ENE 10 14 1021.1 - 0.0 - Partly cloudy 10 - - - -
31/04:00pm 22.5 E 10 13 1021.4 - 0.0 - Partly cloudy 10 - - - -
31/03:30pm 23.3 E 10 13 1021.4 - 0.0 - Partly cloudy 10 - - - -
31/03:00pm 23.0 ENE 11 15 1021.6 - 0.0 - Cloudy 10 - - - -
31/02:30pm 23.9 ENE 8 12 1021.9 - 0.0 - Partly cloudy 10 - - - -
31/02:00pm 23.8 NE 10 15 1022.0 - 0.0 - Partly cloudy 10 - - - -
31/01:30pm 23.7 NE 9 13 1022.5 - 0.0 - Partly cloudy 10 - - - -
31/01:00pm 24.6 ENE 10 14 1022.7 - 0.0 - - 10 - - - -
31/12:30pm 23.5 NE 8 12 1023.4 - 0.0 - - 10 - - - -
31/12:00pm 24.4 E 7 12 1023.7 - 0.0 - Mostly clear 10 - - - -
31/11:30am 24.5 ENE 7 10 1024.2 - 0.0 - Partly cloudy 10 - - - -
31/11:00am 24.5 NE 6 9 1024.7 - 0.0 - - 10 - - - -
31/10:30am 24.3 NE 7 11 1025.1 - 0.0 - Partly cloudy 10 - - - -
31/10:00am 24.0 ENE 5 9 1025.5 - 0.0 - Partly cloudy 10 - - - -
31/09:30am 23.1 E 5 8 1025.3 - 0.0 - - 10 - - - -
31/09:00am 22.2 ESE 7 10 1025.5 - 0.0 - - 10 - - - -
31/08:30am 19.9 SE 6 8 1025.8 - 0.0 - Cloudy 10 - - - -
31/08:00am 17.6 SSE 6 8 1026.0 - 0.0 - Partly cloudy 10 - - - -
31/07:30am 16.2 S 6 9 1025.6 - 0.0 - Partly cloudy 10 - - - -
31/07:00am 14.8 S 6 8 1025.3 - 0.0 - Partly cloudy 10 - - - -
31/06:30am 13.5 S 7 9 1025.0 - 0.0 - Partly cloudy 10 - - - -
31/06:00am 13.2 S 6 8 1025.0 - 0.0 - Mostly clear 10 - - - -
31/05:30am 13.1 S 5 6 1024.8 - 0.0 - Partly cloudy 10 - - - -
31/05:00am 13.8 SSE 5 7 1024.4 - 0.0 - Cloudy 10 - - - -
31/04:30am 13.6 SSE 5 7 1024.3 - 0.0 - Cloudy 10 - - - -
31/04:00am 13.4 S 5 6 1024.5 - 0.0 - Partly cloudy 10 - - - -
31/03:30am 13.8 S 8 9 1024.4 - 0.0 - Cloudy 10 - - - -
31/03:00am 13.3 S 6 8 1024.7 - 0.0 - Mostly cloudy 10 - - - -
31/02:30am 13.2 S 7 8 1024.6 - 0.0 - Partly cloudy 10 - - - -
31/02:00am 13.3 S 7 8 1024.6 - 0.0 - Cloudy 10 - - - -
31/01:30am 13.4 S 6 8 1024.9 - 0.0 - Partly cloudy 10 - - - -
31/01:00am 13.8 S 6 8 1025.2 - 0.0 - Partly cloudy 10 - - - -
31/12:30am 13.4 SSE 5 6 1025.5 - 0.0 - Partly cloudy 10 - - - -
31/12:00am 13.8 S 7 9 1025.9 - 0.0 - Partly cloudy 10 - - - -
 
Date/Time
EST
Temp
°C
Wind Pressure Rain since
9am
mm
Weather Cloud Vis
km
Sea
Height
m
Swell
Dir  Spd
kts
Gust
kts
hPa Trend Height
m
Period
s
Dir
30/11:30pm 14.0 S 6 7 1026.0 - 0.0 - - 10 - - - -
30/11:00pm 13.5 S 5 8 1026.3 - 0.0 - - 10 - - - -
30/10:30pm 13.6 S 4 5 1026.3 - 0.0 - - 10 - - - -
30/10:00pm 13.8 SSE 4 5 1026.5 - 0.0 - - 10 - - - -
30/09:30pm 13.7 SSE 4 5 1026.7 - 0.0 - - 10 - - - -
30/09:00pm 14.2 SE 4 5 1026.6 - 0.0 - - 10 - - - -
30/08:30pm 14.8 SE 4 5 1026.6 - 0.0 - - 10 - - - -
30/08:00pm 15.9 ESE 5 6 1026.5 - 0.0 - - 10 - - - -
30/07:30pm 15.7 ESE 5 7 1026.2 - 0.0 - - 10 - - - -
30/07:00pm 16.4 ESE 7 8 1025.9 - 0.0 - - 10 - - - -
30/06:30pm 17.1 ESE 5 6 1025.6 - 0.0 - - 10 - - - -
30/06:00pm 18.1 E 7 8 1025.2 - 0.0 - - 10 - - - -
30/05:30pm 19.3 E 7 9 1025.0 - 0.0 - - 10 - - - -
30/05:00pm 20.5 E 10 13 1024.9 - 0.0 - - 10 - - - -
30/04:30pm 21.2 E 12 17 1024.8 - 0.0 - - 10 - - - -
30/04:00pm 21.7 E 11 14 1024.8 - 0.0 - - 10 - - - -
30/03:30pm 22.2 E 12 15 1024.7 - 0.0 - - 10 - - - -
30/03:00pm 22.4 E 10 16 1025.0 - 0.0 - Mostly clear 10 - - - -
30/02:30pm 22.1 ESE 12 16 1025.2 - 0.0 - Partly cloudy 10 - - - -
30/02:00pm 22.1 E 12 17 1025.5 - 0.0 - Partly cloudy 10 - - - -
30/01:30pm 21.9 E 12 17 1025.5 - 0.0 - Partly cloudy 10 - - - -
30/01:00pm 21.8 ESE 13 19 1025.9 - 0.0 - Partly cloudy 10 - - - -
30/12:30pm 22.2 E 11 15 1026.2 - 0.0 - Partly cloudy 10 - - - -
30/12:00pm 22.9 ESE 14 19 1026.7 - 0.0 - Cloudy 10 - - - -
30/11:30am 22.0 E 12 17 1027.1 - 0.0 - Partly cloudy 10 - - - -
30/11:00am 22.9 E 14 19 1027.3 - 0.0 - Cloudy 10 - - - -
30/10:30am 21.6 E 12 15 1027.6 - 0.0 - Partly cloudy 10 - - - -
30/10:00am 21.9 E 10 16 1027.7 - 0.0 - Partly cloudy 10 - - - -
30/09:30am 20.8 E 11 15 1027.6 - 0.0 - Partly cloudy 10 - - - -
30/09:00am 20.2 ESE 7 10 1027.6 - 0.0 - - 10 - - - -
30/08:30am 18.8 SE 7 9 1027.2 - 0.0 - Partly cloudy 10 - - - -
30/08:00am 15.8 SE 7 9 1026.8 - 0.0 - Partly cloudy 10 - - - -
30/07:30am 13.9 S 7 9 1026.8 - 0.0 - Partly cloudy 10 - - - -
30/07:00am 12.7 S 7 9 1026.4 - 0.0 - Partly cloudy 10 - - - -
30/06:30am 11.7 S 5 7 1026.0 - 0.0 - Partly cloudy 10 - - - -
30/06:00am 11.3 S 5 6 1025.5 - 0.0 - - 10 - - - -
30/05:30am 11.5 S 6 7 1025.2 - 0.0 - - 10 - - - -
30/05:00am 11.7 S 7 9 1024.9 - 0.0 - Partly cloudy 10 - - - -
30/04:30am 11.8 S 7 8 1024.6 - 0.0 - - 10 - - - -
30/04:00am 11.7 SSW 6 7 1024.4 - 0.0 - - 10 - - - -
30/03:30am 11.6 S 5 7 1024.1 - 0.0 - - 10 - - - -
30/03:00am 11.8 S 5 7 1023.9 - 0.0 - - 10 - - - -
30/02:30am 12.1 S 5 9 1024.1 - 0.0 - - 10 - - - -
30/02:00am 11.9 S 6 7 1024.4 - 0.0 - - 10 - - - -
30/01:30am 12.3 S 6 7 1024.7 - 0.0 - - 10 - - - -
30/01:00am 12.7 S 7 8 1025.0 - 0.0 - - 10 - - - -
30/12:30am 12.7 S 5 6 1025.3 - 0.0 - - 10 - - - -
30/12:00am 12.6 SSW 5 6 1025.6 - 0.0 - - 10 - - - -
 
Date/Time
EST
Temp
°C
Wind Pressure Rain since
9am
mm
Weather Cloud Vis
km
Sea
Height
m
Swell
Dir  Spd
kts
Gust
kts
hPa Trend Height
m
Period
s
Dir
29/11:30pm 12.8 S 5 6 1025.6 - 0.0 - - 10 - - - -
29/11:00pm 12.4 S 3 4 1025.8 - 0.0 - - 10 - - - -
29/10:30pm 13.1 SE 4 6 1025.7 - 0.0 - - 10 - - - -
29/10:00pm 13.6 ESE 4 5 1025.9 - 0.0 - - 10 - - - -
29/09:30pm 14.2 ESE 5 6 1025.8 - 0.0 - - 10 - - - -
29/09:00pm 14.6 ESE 4 5 1025.9 - 0.0 - - 10 - - - -
29/08:30pm 15.0 ESE 5 7 1026.0 - 0.0 - - 10 - - - -
29/08:00pm 15.5 E 6 7 1025.7 - 0.0 - - 10 - - - -
29/07:30pm 16.3 E 7 8 1025.3 - 0.0 - - 10 - - - -
29/07:00pm 17.0 ENE 7 9 1024.9 - 0.0 - - 10 - - - -
29/06:30pm 17.0 ENE 6 7 1024.6 - 0.0 - - 10 - - - -
29/06:00pm 18.0 E 6 7 1024.4 - 0.0 - - 10 - - - -
29/05:30pm 19.5 E 8 12 1024.3 - 0.0 - - 10 - - - -
29/05:00pm 20.8 E 11 14 1024.1 - 0.0 - - 10 - - - -
29/04:30pm 21.7 E 11 14 1024.0 - 0.0 - - 10 - - - -
29/04:00pm 22.4 ENE 10 14 1023.8 - 0.0 - - 10 - - - -
29/03:30pm 23.0 E 12 15 1023.4 - 0.0 - - 10 - - - -
29/03:00pm 23.0 ENE 11 16 1023.3 - 0.0 - - 10 - - - -
29/02:30pm 23.1 ENE 13 16 1023.6 - 0.0 - - 10 - - - -
29/02:00pm 23.3 E 11 17 1023.7 - 0.0 - - 10 - - - -
29/01:30pm 23.5 E 9 15 1024.0 - 0.0 - - 10 - - - -
29/01:00pm 23.3 ESE 12 17 1024.0 - 0.0 - - 10 - - - -
29/12:30pm 23.4 E 10 15 1024.4 - 0.0 - - 10 - - - -
29/12:00pm 23.2 E 9 13 1024.9 - 0.0 - - 10 - - - -
29/11:30am 22.5 ESE 10 15 1025.2 - 0.0 - Partly cloudy 10 - - - -
29/11:00am 22.9 E 9 17 1025.5 - 0.0 - Partly cloudy 10 - - - -
29/10:30am 22.5 ENE 6 13 1025.8 - 0.0 - Partly cloudy 10 - - - -
29/10:00am 22.5 ESE 6 11 1026.0 - 0.0 - Partly cloudy 10 - - - -
29/09:30am 20.4 SE 5 9 1025.8 - 0.0 - - 10 - - - -
29/09:00am 19.0 S 5 7 1025.7 - 0.0 - - 10 - - - -
29/08:30am 17.4 S 6 8 1025.5 - 0.0 - - 10 - - - -
29/08:00am 15.3 S 7 9 1025.4 - 0.0 - - 10 - - - -
29/07:30am 13.9 SSW 5 7 1025.1 - 0.0 - - 10 - - - -
29/07:00am 12.2 SW 1 4 1024.7 - 0.0 - - 10 - - - -
29/06:30am 9.0 SSW 3 4 1024.1 - 0.0 - - 10 - - - -
29/06:00am 8.9 SSW 2 4 1023.7 - 0.0 - - 10 - - - -
29/05:30am 9.5 SSW 4 5 1023.4 - 0.0 - - 10 - - - -
29/05:00am 11.4 SSW 5 7 1023.0 - 0.0 - - 10 - - - -
29/04:30am 11.1 SSW 5 6 1022.6 - 0.0 - - 10 - - - -
29/04:00am 11.4 SSW 5 7 1022.5 - 0.0 - - 10 - - - -
29/03:30am 10.1 SSW 4 5 1022.3 - 0.0 - - 10 - - - -
29/03:00am 10.2 CALM 0 0 1022.4 - 0.0 - - 10 - - - -
29/02:30am 10.5 CALM 0 0 1022.7 - 0.0 - - 10 - - - -
29/02:00am 11.2 SSW 1 3 1022.9 - 0.0 - - 10 - - - -
29/01:30am 11.0 SSW 2 4 1023.1 - 0.0 - - 10 - - - -
29/01:00am 11.1 CALM 0 0 1023.1 - 0.0 - - 10 - - - -
29/12:30am 11.4 SSW 3 4 1023.4 - 0.0 - - 10 - - - -
29/12:00am 12.2 SSW 5 6 1023.4 - 0.0 - - 10 - - - -
 
Date/Time
EST
Temp
°C
Wind Pressure Rain since
9am
mm
Weather Cloud Vis
km
Sea
Height
m
Swell
Dir  Spd
kts
Gust
kts
hPa Trend Height
m
Period
s
Dir
28/11:30pm 11.6 SSW 3 5 1023.3 - 0.0 - - 10 - - - -
28/11:00pm 11.8 SSW 3 4 1023.6 - 0.0 - - 10 - - - -
28/10:30pm 12.1 S 3 4 1023.5 - 0.0 - - 10 - - - -
28/10:00pm 12.1 CALM 0 0 1023.5 - 0.0 - - 10 - - - -
28/09:30pm 12.4 CALM 0 0 1023.4 - 0.0 - - 10 - - - -
28/09:00pm 12.8 CALM 0 0 1023.4 - 0.0 - - 10 - - - -
28/08:30pm 13.6 CALM 0 0 1023.1 - 0.0 - - 10 - - - -
28/08:00pm 14.3 CALM 0 0 1022.9 - 0.0 - - 10 - - - -
28/07:30pm 15.4 CALM 0 0 1022.5 - 0.0 - - 10 - - - -
28/07:00pm 16.4 CALM 0 0 1022.3 - 0.0 - - 10 - - - -
28/06:30pm 17.4 NNE 4 5 1021.9 - 0.0 - - 10 - - - -

Other Formats:

Comma delimited format used in spreadsheet applications
http://www.bom.gov.au/fwo/IDQ60701/IDQ60701.94387.axf

JavaScript Object Notation format (JSON) in row-major order
http://www.bom.gov.au/fwo/IDQ60701/IDQ60701.94387.json